Wetterdaten: Woche 04.08.03 - 10.08.03 (KW32)
Datum Zeit Temperatur Luftfeuchte Luftdruck Regenmenge Wind Richtung Taupunkt Windchill
04.08.2003 00:00 20.0 C 68 % 1022.1 hPa 0.0 l/m 0.8 km/h (0 Bft) O-SO 14.0 C 20.0 C
04.08.2003 01:00 19.1 C 72 % 1022.1 hPa 0.0 l/m 2.7 km/h (1 Bft) O-SO 14.0 C 19.1 C
04.08.2003 02:00 18.3 C 76 % 1022.1 hPa 0.0 l/m 0.9 km/h (0 Bft) O-SO 14.0 C 18.3 C
04.08.2003 03:00 17.5 C 80 % 1022.6 hPa 0.0 l/m 1.2 km/h (1 Bft) O-SO 14.1 C 17.5 C
04.08.2003 04:00 17.0 C 84 % 1022.9 hPa 0.0 l/m 0.4 km/h (0 Bft) O-SO 14.2 C 17.0 C
04.08.2003 05:00 16.5 C 86 % 1023.1 hPa 0.0 l/m 0.3 km/h (0 Bft) O-SO 14.1 C 16.5 C
04.08.2003 06:00 16.5 C 88 % 1023.1 hPa 0.0 l/m 0.9 km/h (0 Bft) O-SO 14.5 C 16.5 C
04.08.2003 07:00 17.5 C 84 % 1023.7 hPa 0.0 l/m 0.0 km/h (0 Bft) N 14.7 C 17.5 C
04.08.2003 08:00 19.7 C 74 % 1024.2 hPa 0.0 l/m 0.0 km/h (0 Bft) N 14.9 C 19.7 C
04.08.2003 09:00 22.4 C 62 % 1024.2 hPa 0.0 l/m 0.0 km/h (0 Bft) N 14.8 C 22.4 C
04.08.2003 10:00 25.1 C 53 % 1023.7 hPa 0.0 l/m 0.3 km/h (0 Bft) W-NW 15.0 C 25.1 C
04.08.2003 11:00 28.2 C 45 % 1023.1 hPa 0.0 l/m 0.7 km/h (0 Bft) N-NW 15.2 C 28.2 C
04.08.2003 12:00 31.1 C 37 % 1023.1 hPa 0.0 l/m 1.6 km/h (1 Bft) W-NW 14.7 C 31.1 C
04.08.2003 13:00 33.5 C 31 % 1022.4 hPa 0.0 l/m 5.9 km/h (2 Bft) O-SO 14.1 C 33.5 C
04.08.2003 14:00 35.3 C 27 % 1022.1 hPa 0.0 l/m 14.0 km/h (3 Bft) O-SO 13.4 C 35.3 C
04.08.2003 15:00 36.3 C 27 % 1022.1 hPa 0.0 l/m 19.1 km/h (3 Bft) O-SO 14.2 C 36.3 C
04.08.2003 16:00 36.4 C 27 % 1021.3 hPa 0.0 l/m 20.6 km/h (4 Bft) O-SO 14.4 C 36.4 C
04.08.2003 17:00 36.3 C 27 % 1021.1 hPa 0.0 l/m 19.9 km/h (4 Bft) O-SO 14.2 C 36.3 C
04.08.2003 18:00 35.5 C 27 % 1021.1 hPa 0.0 l/m 18.4 km/h (3 Bft) O-SO 13.6 C 35.5 C
04.08.2003 19:00 34.1 C 29 % 1021.1 hPa 0.0 l/m 7.9 km/h (2 Bft) O-SO 13.3 C 34.1 C
04.08.2003 20:00 30.3 C 38 % 1021.1 hPa 0.0 l/m 4.2 km/h (1 Bft) O-SO 14.1 C 30.3 C
04.08.2003 21:00 26.3 C 43 % 1021.1 hPa 0.0 l/m 1.6 km/h (1 Bft) O-SO 12.6 C 26.3 C
04.08.2003 22:00 23.0 C 56 % 1021.4 hPa 0.0 l/m 1.0 km/h (0 Bft) SO 13.8 C 23.0 C
04.08.2003 23:00 21.0 C 65 % 1022.1 hPa 0.0 l/m 0.3 km/h (0 Bft) S 14.1 C 21.0 C
05.08.2003 00:00 20.0 C 68 % 1022.1 hPa 0.0 l/m 0.8 km/h (0 Bft) O-SO 14.0 C 20.0 C
05.08.2003 01:00 19.1 C 72 % 1022.1 hPa 0.0 l/m 2.7 km/h (1 Bft) O-SO 14.0 C 19.1 C
05.08.2003 02:00 18.3 C 76 % 1022.1 hPa 0.0 l/m 0.9 km/h (0 Bft) O-SO 14.0 C 18.3 C
05.08.2003 03:00 17.5 C 80 % 1022.6 hPa 0.0 l/m 1.2 km/h (1 Bft) O-SO 14.1 C 17.5 C
05.08.2003 04:00 17.1 C 84 % 1022.9 hPa 0.0 l/m 0.4 km/h (0 Bft) O-SO 14.3 C 17.1 C
05.08.2003 05:00 17.1 C 87 % 1023.1 hPa 0.0 l/m 0.3 km/h (0 Bft) O-SO 14.9 C 17.1 C
05.08.2003 06:00 17.0 C 89 % 1023.1 hPa 0.0 l/m 0.9 km/h (0 Bft) O-SO 15.3 C 17.0 C
05.08.2003 07:00 17.7 C 84 % 1023.7 hPa 0.0 l/m 0.0 km/h (0 Bft) N 15.0 C 17.7 C
05.08.2003 08:00 19.7 C 74 % 1024.2 hPa 0.0 l/m 0.0 km/h (0 Bft) N 14.9 C 19.7 C
05.08.2003 09:00 22.4 C 62 % 1024.2 hPa 0.0 l/m 0.0 km/h (0 Bft) N 14.8 C 22.4 C
05.08.2003 10:00 25.1 C 53 % 1023.7 hPa 0.0 l/m 0.3 km/h (0 Bft) W-NW 15.0 C 25.1 C
05.08.2003 11:00 28.2 C 45 % 1023.1 hPa 0.0 l/m 0.7 km/h (0 Bft) N-NW 15.2 C 28.2 C
05.08.2003 12:00 31.1 C 37 % 1023.1 hPa 0.0 l/m 1.6 km/h (1 Bft) W-NW 14.7 C 31.1 C
05.08.2003 13:00 33.5 C 31 % 1023.1 hPa 0.0 l/m 5.9 km/h (2 Bft) O-SO 14.1 C 33.5 C
05.08.2003 14:00 35.3 C 27 % 1022.3 hPa 0.0 l/m 7.6 km/h (2 Bft) O-SO 13.5 C 35.3 C
05.08.2003 15:00 36.2 C 27 % 1022.1 hPa 0.0 l/m 10.1 km/h (2 Bft) O-SO 14.2 C 36.2 C
05.08.2003 16:00 36.2 C 27 % 1021.3 hPa 0.0 l/m 8.9 km/h (2 Bft) O-SO 14.2 C 36.2 C
05.08.2003 17:00 35.9 C 27 % 1021.1 hPa 0.0 l/m 15.0 km/h (3 Bft) O-SO 13.9 C 35.9 C
05.08.2003 18:00 35.5 C 27 % 1021.1 hPa 0.0 l/m 18.4 km/h (3 Bft) O-SO 13.6 C 35.5 C
05.08.2003 19:00 34.1 C 29 % 1021.1 hPa 0.0 l/m 7.9 km/h (2 Bft) O-SO 13.3 C 34.1 C
05.08.2003 20:00 30.3 C 38 % 1021.1 hPa 0.0 l/m 4.2 km/h (1 Bft) O-SO 14.1 C 30.3 C
05.08.2003 21:00 26.3 C 43 % 1021.1 hPa 0.0 l/m 1.6 km/h (1 Bft) O-SO 12.6 C 26.3 C
05.08.2003 22:00 23.0 C 56 % 1021.4 hPa 0.0 l/m 1.0 km/h (0 Bft) SO 13.8 C 23.0 C
05.08.2003 23:00 21.3 C 65 % 1022.1 hPa 0.0 l/m 0.3 km/h (0 Bft) S 14.4 C 21.3 C
06.08.2003 00:00 20.7 C 69 % 1022.1 hPa 0.0 l/m 0.8 km/h (0 Bft) O-SO 14.8 C 20.7 C
06.08.2003 01:00 19.7 C 74 % 1022.1 hPa 0.0 l/m 2.7 km/h (1 Bft) O-SO 15.0 C 19.7 C
06.08.2003 02:00 18.8 C 78 % 1022.1 hPa 0.0 l/m 0.9 km/h (0 Bft) O-SO 14.9 C 18.8 C
06.08.2003 03:00 18.0 C 83 % 1022.6 hPa 0.0 l/m 1.2 km/h (1 Bft) O-SO 15.1 C 18.0 C
06.08.2003 04:00 18.0 C 86 % 1022.9 hPa 0.0 l/m 0.4 km/h (0 Bft) O-SO 15.5 C 18.0 C
06.08.2003 05:00 17.6 C 86 % 1023.1 hPa 0.0 l/m 0.3 km/h (0 Bft) O-SO 15.1 C 17.6 C
06.08.2003 06:00 17.6 C 85 % 1023.1 hPa 0.0 l/m 0.9 km/h (0 Bft) O-SO 15.1 C 17.6 C
06.08.2003 07:00 18.1 C 84 % 1023.1 hPa 0.0 l/m 0.0 km/h (0 Bft) N 15.3 C 18.1 C
06.08.2003 08:00 19.7 C 74 % 1023.1 hPa 0.0 l/m 0.0 km/h (0 Bft) N 14.9 C 19.7 C
06.08.2003 09:00 22.4 C 62 % 1023.1 hPa 0.0 l/m 0.0 km/h (0 Bft) N 14.8 C 22.4 C
06.08.2003 10:00 25.1 C 53 % 1023.1 hPa 0.0 l/m 0.3 km/h (0 Bft) W-NW 15.0 C 25.1 C
06.08.2003 11:00 28.2 C 45 % 1023.1 hPa 0.0 l/m 0.7 km/h (0 Bft) N-NW 15.2 C 28.2 C
06.08.2003 12:00 31.1 C 37 % 1023.1 hPa 0.0 l/m 1.6 km/h (1 Bft) W-NW 14.7 C 31.1 C
06.08.2003 13:00 33.5 C 31 % 1022.4 hPa 0.0 l/m 5.9 km/h (2 Bft) O-SO 14.1 C 33.5 C
06.08.2003 14:00 35.3 C 27 % 1022.1 hPa 0.0 l/m 14.0 km/h (3 Bft) O-SO 13.5 C 35.3 C
06.08.2003 15:00 36.0 C 27 % 1022.1 hPa 0.0 l/m 19.1 km/h (3 Bft) O-SO 14.0 C 36.0 C
06.08.2003 16:00 35.9 C 27 % 1022.1 hPa 0.0 l/m 19.3 km/h (3 Bft) O-SO 14.0 C 35.9 C
06.08.2003 17:00 35.9 C 27 % 1022.1 hPa 0.0 l/m 12.0 km/h (2 Bft) O-SO 13.9 C 35.9 C
06.08.2003 18:00 35.5 C 27 % 1021.7 hPa 0.0 l/m 5.7 km/h (1 Bft) O-SO 13.6 C 35.5 C
06.08.2003 19:00 34.1 C 29 % 1021.1 hPa 0.0 l/m 5.8 km/h (2 Bft) O-SO 13.3 C 34.1 C
06.08.2003 20:00 30.3 C 38 % 1021.1 hPa 0.0 l/m 4.2 km/h (1 Bft) O-SO 14.1 C 30.3 C
06.08.2003 21:00 26.3 C 43 % 1021.1 hPa 0.0 l/m 1.6 km/h (1 Bft) O-SO 12.6 C 26.3 C
06.08.2003 22:00 23.0 C 56 % 1021.4 hPa 0.0 l/m 1.0 km/h (0 Bft) SO 13.8 C 23.0 C
06.08.2003 23:00 21.0 C 65 % 1022.1 hPa 0.0 l/m 0.3 km/h (0 Bft) S 14.1 C 21.0 C
07.08.2003 00:00 20.0 C 68 % 1022.1 hPa 0.0 l/m 0.8 km/h (0 Bft) O-SO 14.0 C 20.0 C
07.08.2003 01:00 19.1 C 72 % 1022.1 hPa 0.0 l/m 2.7 km/h (1 Bft) O-SO 14.0 C 19.1 C
07.08.2003 02:00 18.3 C 76 % 1022.1 hPa 0.0 l/m 0.9 km/h (0 Bft) O-SO 14.0 C 18.3 C
07.08.2003 03:00 17.5 C 80 % 1022.6 hPa 0.0 l/m 1.2 km/h (1 Bft) O-SO 14.1 C 17.5 C
07.08.2003 04:00 16.9 C 84 % 1022.9 hPa 0.0 l/m 0.4 km/h (0 Bft) O-SO 14.1 C 16.9 C
07.08.2003 05:00 16.1 C 86 % 1023.1 hPa 0.0 l/m 0.3 km/h (0 Bft) O-SO 13.6 C 16.1 C
07.08.2003 06:00 16.4 C 87 % 1023.1 hPa 0.0 l/m 0.9 km/h (0 Bft) O-SO 14.1 C 16.4 C
07.08.2003 07:00 17.5 C 84 % 1023.7 hPa 0.0 l/m 0.0 km/h (0 Bft) N 14.7 C 17.5 C
07.08.2003 08:00 19.7 C 74 % 1024.2 hPa 0.0 l/m 0.0 km/h (0 Bft) N 14.9 C 19.7 C
07.08.2003 09:00 22.4 C 62 % 1024.2 hPa 0.0 l/m 0.0 km/h (0 Bft) N 14.8 C 22.4 C
07.08.2003 10:00 25.1 C 53 % 1023.7 hPa 0.0 l/m 0.3 km/h (0 Bft) W-NW 15.0 C 25.1 C
07.08.2003 11:00 28.2 C 45 % 1023.1 hPa 0.0 l/m 0.7 km/h (0 Bft) N-NW 15.2 C 28.2 C
07.08.2003 12:00 31.1 C 37 % 1023.1 hPa 0.0 l/m 1.6 km/h (1 Bft) W-NW 14.7 C 31.1 C
07.08.2003 13:00 33.5 C 31 % 1022.4 hPa 0.0 l/m 5.9 km/h (2 Bft) O-SO 14.1 C 33.5 C
07.08.2003 14:00 35.3 C 27 % 1022.1 hPa 0.0 l/m 12.0 km/h (2 Bft) O-SO 13.5 C 35.3 C
07.08.2003 15:00 36.1 C 27 % 1022.1 hPa 0.0 l/m 12.3 km/h (3 Bft) O-SO 14.1 C 36.1 C
07.08.2003 16:00 36.2 C 27 % 1021.3 hPa 0.0 l/m 11.8 km/h (2 Bft) O-SO 14.2 C 36.2 C
07.08.2003 17:00 36.1 C 27 % 1021.1 hPa 0.0 l/m 9.4 km/h (2 Bft) O-SO 14.1 C 36.1 C
07.08.2003 18:00 35.5 C 27 % 1021.1 hPa 0.0 l/m 4.3 km/h (1 Bft) O-SO 13.6 C 35.5 C
07.08.2003 19:00 34.1 C 29 % 1021.1 hPa 0.0 l/m 7.1 km/h (2 Bft) O-SO 13.3 C 34.1 C
07.08.2003 20:00 30.3 C 38 % 1021.1 hPa 0.0 l/m 3.6 km/h (1 Bft) O-SO 14.1 C 30.3 C
07.08.2003 21:00 26.3 C 43 % 1021.1 hPa 0.0 l/m 1.6 km/h (1 Bft) O-SO 12.6 C 26.3 C
07.08.2003 22:00 23.0 C 56 % 1021.4 hPa 0.0 l/m 1.0 km/h (0 Bft) SO 13.8 C 23.0 C
07.08.2003 23:00 21.0 C 65 % 1022.1 hPa 0.0 l/m 0.3 km/h (0 Bft) S 14.1 C 21.0 C
08.08.2003 00:00 20.0 C 68 % 1022.1 hPa 0.0 l/m 0.8 km/h (0 Bft) O-SO 14.0 C 20.0 C
08.08.2003 01:00 19.1 C 72 % 1022.1 hPa 0.0 l/m 2.7 km/h (1 Bft) O-SO 14.0 C 19.1 C
08.08.2003 02:00 18.3 C 76 % 1022.1 hPa 0.0 l/m 0.9 km/h (0 Bft) O-SO 14.0 C 18.3 C
08.08.2003 03:00 17.5 C 80 % 1022.6 hPa 0.0 l/m 1.2 km/h (1 Bft) O-SO 14.0 C 17.5 C
08.08.2003 04:00 16.7 C 84 % 1022.9 hPa 0.0 l/m 0.4 km/h (0 Bft) O-SO 13.9 C 16.7 C
08.08.2003 05:00 15.8 C 86 % 1023.1 hPa 0.0 l/m 0.3 km/h (0 Bft) O-SO 13.4 C 15.8 C
08.08.2003 06:00 15.9 C 85 % 1023.1 hPa 0.0 l/m 0.9 km/h (0 Bft) O-SO 13.5 C 15.9 C
08.08.2003 07:00 17.5 C 84 % 1023.1 hPa 0.0 l/m 0.0 km/h (0 Bft) N 14.7 C 17.5 C
08.08.2003 08:00 19.7 C 74 % 1023.1 hPa 0.0 l/m 0.0 km/h (0 Bft) N 14.9 C 19.7 C
08.08.2003 09:00 22.4 C 62 % 1023.1 hPa 0.0 l/m 0.0 km/h (0 Bft) N 14.8 C 22.4 C
08.08.2003 10:00 25.1 C 53 % 1023.1 hPa 0.0 l/m 0.3 km/h (0 Bft) W-NW 15.0 C 25.1 C
08.08.2003 11:00 28.2 C 45 % 1023.1 hPa 0.0 l/m 0.7 km/h (0 Bft) N-NW 15.2 C 28.2 C
08.08.2003 12:00 31.1 C 37 % 1023.1 hPa 0.0 l/m 1.6 km/h (1 Bft) W-NW 14.7 C 31.1 C
08.08.2003 13:00 33.5 C 31 % 1022.4 hPa 0.0 l/m 5.9 km/h (2 Bft) O-SO 14.1 C 33.5 C
08.08.2003 14:00 35.3 C 27 % 1022.1 hPa 0.0 l/m 14.0 km/h (3 Bft) O-SO 13.4 C 35.3 C
08.08.2003 15:00 36.7 C 27 % 1022.1 hPa 0.0 l/m 19.1 km/h (3 Bft) O-SO 14.5 C 36.7 C
08.08.2003 16:00 36.7 C 27 % 1021.3 hPa 0.0 l/m 20.6 km/h (4 Bft) O-SO 14.6 C 36.7 C
08.08.2003 17:00 36.3 C 27 % 1021.0 hPa 0.0 l/m 19.9 km/h (4 Bft) O-SO 14.2 C 36.3 C
08.08.2003 18:00 35.5 C 27 % 1020.0 hPa 0.0 l/m 18.4 km/h (3 Bft) O-SO 13.6 C 35.5 C
08.08.2003 19:00 34.1 C 29 % 1020.0 hPa 0.0 l/m 7.9 km/h (2 Bft) O-SO 13.3 C 34.1 C
08.08.2003 20:00 30.3 C 38 % 1020.8 hPa 0.0 l/m 4.2 km/h (1 Bft) O-SO 14.1 C 30.3 C
08.08.2003 21:00 26.3 C 43 % 1021.1 hPa 0.0 l/m 1.6 km/h (1 Bft) O-SO 12.6 C 26.3 C
08.08.2003 22:00 23.3 C 57 % 1021.4 hPa 0.0 l/m 1.0 km/h (0 Bft) SO 14.3 C 23.3 C
08.08.2003 23:00 22.0 C 65 % 1022.1 hPa 0.0 l/m 0.3 km/h (0 Bft) S 15.1 C 22.0 C
09.08.2003 00:00 20.8 C 70 % 1022.1 hPa 0.0 l/m 0.8 km/h (0 Bft) O-SO 15.1 C 20.8 C
09.08.2003 01:00 19.3 C 72 % 1022.1 hPa 0.0 l/m 2.7 km/h (1 Bft) O-SO 14.2 C 19.3 C
09.08.2003 02:00 18.3 C 76 % 1022.1 hPa 0.0 l/m 0.9 km/h (0 Bft) O-SO 14.0 C 18.3 C
09.08.2003 03:00 17.5 C 80 % 1022.6 hPa 0.0 l/m 1.2 km/h (1 Bft) O-SO 14.1 C 17.5 C
09.08.2003 04:00 17.0 C 84 % 1022.9 hPa 0.0 l/m 0.4 km/h (0 Bft) O-SO 14.2 C 17.0 C
09.08.2003 05:00 16.5 C 86 % 1023.1 hPa 0.0 l/m 0.3 km/h (0 Bft) O-SO 14.1 C 16.5 C
09.08.2003 06:00 16.5 C 88 % 1023.1 hPa 0.0 l/m 0.9 km/h (0 Bft) O-SO 14.5 C 16.5 C
09.08.2003 07:00 17.5 C 84 % 1023.7 hPa 0.0 l/m 0.0 km/h (0 Bft) N 14.7 C 17.5 C
09.08.2003 08:00 19.7 C 74 % 1024.2 hPa 0.0 l/m 0.0 km/h (0 Bft) N 14.9 C 19.7 C
09.08.2003 09:00 22.4 C 62 % 1024.2 hPa 0.0 l/m 0.0 km/h (0 Bft) N 14.8 C 22.4 C
09.08.2003 10:00 25.1 C 53 % 1023.7 hPa 0.0 l/m 0.3 km/h (0 Bft) W-NW 15.0 C 25.1 C
09.08.2003 11:00 28.2 C 45 % 1023.1 hPa 0.0 l/m 0.7 km/h (0 Bft) N-NW 15.2 C 28.2 C
09.08.2003 12:00 31.1 C 37 % 1023.1 hPa 0.0 l/m 1.6 km/h (1 Bft) W-NW 14.7 C 31.1 C
09.08.2003 13:00 33.5 C 31 % 1022.4 hPa 0.0 l/m 5.9 km/h (2 Bft) O-SO 14.1 C 33.5 C
09.08.2003 14:00 35.3 C 27 % 1022.1 hPa 0.0 l/m 5.5 km/h (1 Bft) O-SO 13.4 C 35.3 C
09.08.2003 15:00 36.2 C 27 % 1022.1 hPa 0.0 l/m 6.8 km/h (2 Bft) O-SO 14.1 C 36.2 C
09.08.2003 16:00 36.3 C 27 % 1021.3 hPa 0.0 l/m 5.4 km/h (1 Bft) O-SO 14.2 C 36.3 C
09.08.2003 17:00 36.1 C 27 % 1021.1 hPa 0.0 l/m 9.1 km/h (2 Bft) O-SO 14.1 C 36.1 C
09.08.2003 18:00 35.5 C 27 % 1021.1 hPa 0.0 l/m 3.7 km/h (1 Bft) O-SO 13.6 C 35.5 C
09.08.2003 19:00 34.1 C 29 % 1021.1 hPa 0.0 l/m 5.5 km/h (1 Bft) O-SO 13.3 C 34.1 C
09.08.2003 20:00 30.3 C 38 % 1021.1 hPa 0.0 l/m 4.2 km/h (1 Bft) O-SO 14.1 C 30.3 C
09.08.2003 21:00 26.3 C 43 % 1021.1 hPa 0.0 l/m 1.6 km/h (1 Bft) O-SO 12.6 C 26.3 C
09.08.2003 22:00 23.0 C 56 % 1021.1 hPa 0.0 l/m 1.0 km/h (0 Bft) SO 13.8 C 23.0 C
09.08.2003 23:00 21.0 C 65 % 1020.9 hPa 0.0 l/m 0.3 km/h (0 Bft) S 14.1 C 21.0 C
10.08.2003 00:00 20.0 C 68 % 1020.0 hPa 0.0 l/m 0.8 km/h (0 Bft) O-SO 14.0 C 20.0 C
10.08.2003 01:00 19.1 C 72 % 1020.0 hPa 0.0 l/m 2.7 km/h (1 Bft) O-SO 14.0 C 19.1 C
10.08.2003 02:00 18.3 C 76 % 1020.0 hPa 0.0 l/m 0.9 km/h (0 Bft) O-SO 14.0 C 18.3 C
10.08.2003 03:00 17.5 C 80 % 1020.0 hPa 0.0 l/m 1.2 km/h (1 Bft) O-SO 14.1 C 17.5 C
10.08.2003 04:00 17.0 C 84 % 1020.0 hPa 0.0 l/m 0.4 km/h (0 Bft) O-SO 14.2 C 17.0 C
10.08.2003 05:00 16.5 C 86 % 1020.0 hPa 0.0 l/m 0.3 km/h (0 Bft) O-SO 14.1 C 16.5 C
10.08.2003 06:00 16.5 C 88 % 1019.0 hPa 0.0 l/m 0.9 km/h (0 Bft) O-SO 14.5 C 16.5 C
10.08.2003 07:00 17.5 C 84 % 1019.0 hPa 0.0 l/m 0.0 km/h (0 Bft) N 14.7 C 17.5 C
10.08.2003 08:00 19.7 C 74 % 1019.0 hPa 0.0 l/m 0.0 km/h (0 Bft) N 14.9 C 19.7 C
10.08.2003 09:00 22.4 C 62 % 1019.0 hPa 0.0 l/m 0.0 km/h (0 Bft) N 14.8 C 22.4 C
10.08.2003 10:00 25.1 C 53 % 1018.4 hPa 0.0 l/m 0.3 km/h (0 Bft) W-NW 15.0 C 25.1 C
10.08.2003 11:00 28.2 C 45 % 1018.0 hPa 0.0 l/m 0.7 km/h (0 Bft) N-NW 15.2 C 28.2 C
10.08.2003 12:00 31.1 C 37 % 1017.5 hPa 0.0 l/m 1.6 km/h (1 Bft) W-NW 14.7 C 31.1 C
10.08.2003 13:00 33.5 C 31 % 1016.9 hPa 0.0 l/m 5.9 km/h (2 Bft) O-SO 14.1 C 33.5 C
10.08.2003 14:00 35.9 C 20 % 1016.4 hPa 0.0 l/m 3.1 km/h (1 Bft) NW 9.6 C 35.9 C
10.08.2003 15:00 36.8 C 20 % 1016.0 hPa 0.0 l/m 3.5 km/h (1 Bft) W-NW 10.2 C 36.8 C
10.08.2003 16:00 37.2 C 20 % 1016.0 hPa 0.0 l/m 2.8 km/h (1 Bft) NO 10.5 C 37.2 C
10.08.2003 17:00 37.2 C 20 % 1015.0 hPa 0.0 l/m 1.0 km/h (0 Bft) N-NO 10.5 C 37.2 C
10.08.2003 18:00 36.6 C 20 % 1014.9 hPa 0.0 l/m 2.5 km/h (1 Bft) W-NW 10.0 C 36.6 C
10.08.2003 19:00 35.2 C 21 % 1014.9 hPa 0.0 l/m 1.8 km/h (1 Bft) W-NW 9.2 C 35.2 C
10.08.2003 20:00 32.5 C 21 % 1014.9 hPa 0.0 l/m 0.0 km/h (0 Bft) N 7.2 C 32.5 C
10.08.2003 21:00 28.2 C 24 % 1015.7 hPa 0.0 l/m 0.7 km/h (0 Bft) O-SO 5.9 C 28.2 C
10.08.2003 22:00 24.3 C 35 % 1016.0 hPa 0.0 l/m 4.2 km/h (1 Bft) O-SO 7.6 C 24.3 C
10.08.2003 23:00 22.1 C 41 % 1016.9 hPa 0.0 l/m 3.5 km/h (1 Bft) O-SO 8.4 C 22.1 C
Min-Datum _ 08.08.03 10.08.03 10.08.03 - 04.08.03 - 10.08.03 08.08.03
_ Min-Zeit 05:58 14:04 18:00 - 00:01 - 21:10 05:58
Minimum _ 15.2 C 20 % 1014.9 hPa - 0.0 km/h (0 Bft) - 4.5 C 15.2 C
Max-Datum _ 10.08.03 04.08.03 04.08.03 04.08.03 04.08.03 - 04.08.03 10.08.03
_ Max-Zeit 16:40 06:37 08:00 00:01 16:46 - 12:28 16:40
Maximum _ 37.4 C 91 % 1024.2 hPa 0.0 l/m 29.4 km/h
O-SO (5 Bft)
- 16.1 C 37.4 C
Durchschnitt _ 25.8 C 54 % 1021.7 hPa #0.0 l/m 3.6 km/h (1 Bft) O-SO 13.9 C 25.8 C

Durchschnitt Minimum Temp.24.5 C
Durchschnitt Maximum Temp.27.0 C
© Kaiko 2003